Sheridan, Illinois
Current Conditions -  °F | °C
As of 6:35 AM on Monday 24 Nov 2014 (Local Time) from KC09 Reporting Station
Moderate Rain Moderate Rain  
Wind Chill: 33°   Ceiling: 400
Heat Index: 42°   Visibility: 4mi
Dew Point: 42°   Wind: 23mph
Humidity: 100%   Direction: 250°WSW
Pressure: 29.13"   Gusts: 28mph
Location:  41.53°N, 88.68°W
Report Text: KC09 241235Z AUTO 25020G24KT 4SM RA OVC004 06/06 A2913 RMK AO2 T00580058
Loading
Personal Weather Stations






























Interactive Weather Map New forecast layout! Learn more

10-Day Weather Forecast

Advertisements
Track Severe Weather on mobile